createdAt,value
2022-10-19T00:01:12.899Z,2.35
2022-10-19T00:03:41.379Z,3.55
2022-10-19T00:06:28.322Z,3.22
2022-10-19T00:09:18.636Z,3.75
2022-10-19T00:11:48.360Z,3.63
2022-10-19T00:14:17.738Z,4.13
2022-10-19T00:16:46.691Z,3.17
2022-10-19T00:19:17.516Z,2.80
2022-10-19T00:21:44.600Z,3.72
2022-10-19T00:24:12.322Z,5.57
2022-10-19T00:26:39.513Z,2.65
2022-10-19T00:29:07.280Z,6.53
2022-10-19T00:31:34.923Z,3.13
2022-10-19T00:34:01.976Z,2.35
2022-10-19T00:36:39.339Z,6.13
2022-10-19T00:39:09.069Z,3.53
2022-10-19T00:41:37.284Z,4.00
2022-10-19T00:44:10.363Z,4.95
2022-10-19T00:46:39.392Z,4.20
2022-10-19T00:49:16.241Z,4.00
2022-10-19T00:51:47.819Z,4.70
2022-10-19T00:54:16.232Z,4.97
2022-10-19T00:56:46.163Z,3.80
2022-10-19T00:59:21.546Z,3.50
2022-10-19T01:01:50.089Z,2.30
2022-10-19T01:04:17.379Z,3.80
2022-10-19T01:06:44.445Z,8.32
2022-10-19T01:09:11.539Z,17.02
2022-10-19T01:11:58.753Z,2.85
2022-10-19T01:14:56.825Z,5.25
2022-10-19T01:17:51.131Z,5.78
2022-10-19T01:20:39.068Z,3.05
2022-10-19T01:23:39.717Z,5.55
2022-10-19T01:26:25.494Z,5.47
2022-10-19T01:29:24.739Z,4.22
2022-10-19T01:31:54.775Z,4.55
2022-10-19T01:34:24.771Z,6.10
2022-10-19T01:37:03.167Z,3.25
2022-10-19T01:39:45.349Z,8.98
2022-10-19T01:42:37.634Z,4.88
2022-10-19T01:45:19.653Z,5.43
2022-10-19T01:47:54.256Z,4.78
2022-10-19T01:50:31.492Z,3.90
2022-10-19T01:52:59.877Z,5.78
2022-10-19T01:55:27.896Z,3.47
2022-10-19T01:58:08.223Z,3.85
2022-10-19T02:00:41.311Z,4.90
2022-10-19T02:03:10.375Z,5.18
2022-10-19T02:06:33.728Z,3.28
2022-10-19T02:09:04.131Z,3.75
2022-10-19T02:11:32.438Z,3.47
2022-10-19T02:14:08.163Z,3.70
2022-10-19T02:16:44.788Z,2.83
2022-10-19T02:19:14.827Z,3.42
2022-10-19T02:21:41.908Z,3.25
2022-10-19T02:24:08.896Z,4.50
2022-10-19T02:26:36.011Z,3.95
2022-10-19T02:29:04.630Z,3.58
2022-10-19T02:31:32.001Z,3.35
2022-10-19T02:33:59.557Z,4.88
2022-10-19T02:36:27.038Z,4.35
2022-10-19T02:38:54.306Z,2.97
2022-10-19T02:41:28.553Z,5.32
2022-10-19T02:44:03.608Z,7.10
2022-10-19T02:46:41.952Z,4.38
2022-10-19T02:49:10.358Z,3.38
2022-10-19T02:51:55.880Z,4.82
2022-10-19T02:54:26.123Z,5.57
2022-10-19T02:56:53.170Z,5.07
2022-10-19T02:59:20.354Z,5.18
2022-10-19T03:01:47.652Z,3.00
2022-10-19T03:04:14.787Z,4.03
2022-10-19T03:06:41.859Z,4.32
2022-10-19T03:09:09.262Z,6.00
2022-10-19T03:11:36.527Z,4.45
2022-10-19T03:14:05.844Z,4.45
2022-10-19T03:16:34.145Z,3.95
2022-10-19T03:19:01.174Z,5.70
2022-10-19T03:21:28.239Z,5.75
2022-10-19T03:23:55.316Z,4.95
2022-10-19T03:26:22.373Z,7.05
2022-10-19T03:28:49.587Z,7.13
2022-10-19T03:31:16.696Z,6.53
2022-10-19T03:33:43.770Z,5.78
2022-10-19T03:36:24.522Z,9.90
2022-10-19T03:38:56.794Z,11.02
2022-10-19T03:41:26.771Z,9.55
2022-10-19T03:43:54.176Z,9.70
2022-10-19T03:46:21.848Z,9.40
2022-10-19T03:48:49.297Z,9.90
2022-10-19T03:51:19.283Z,12.25
2022-10-19T03:53:47.225Z,8.07
2022-10-19T03:56:19.874Z,10.43
2022-10-19T03:58:48.753Z,12.25
2022-10-19T04:01:18.828Z,12.32
2022-10-19T04:03:45.958Z,7.50
2022-10-19T04:06:21.259Z,25.40
2022-10-19T04:08:50.181Z,11.15
2022-10-19T04:11:19.446Z,22.05
2022-10-19T04:13:50.536Z,19.00
2022-10-19T04:16:18.714Z,12.82
2022-10-19T04:18:45.873Z,23.98
2022-10-19T04:21:35.387Z,16.58
2022-10-19T04:24:07.101Z,19.25
2022-10-19T04:26:38.040Z,22.58
2022-10-19T04:29:05.224Z,16.35
2022-10-19T04:31:32.469Z,41.97
2022-10-19T04:33:59.542Z,102.28
2022-10-19T04:36:27.013Z,186.45
2022-10-19T04:38:54.118Z,162.15
2022-10-19T04:41:21.999Z,20.48
2022-10-19T04:43:50.452Z,23.63
2022-10-19T04:46:19.453Z,14.75
2022-10-19T04:48:48.395Z,76.53
2022-10-19T04:51:16.052Z,19.65
2022-10-19T04:53:44.133Z,56.08
2022-10-19T04:56:17.599Z,86.68
2022-10-19T04:58:45.095Z,53.10
2022-10-19T05:01:18.372Z,29.00
2022-10-19T05:03:46.185Z,16.40
2022-10-19T05:06:14.749Z,77.78
2022-10-19T05:08:41.967Z,22.42
2022-10-19T05:11:12.991Z,19.45
2022-10-19T05:13:40.545Z,19.42
2022-10-19T05:16:10.951Z,16.25
2022-10-19T05:18:38.220Z,13.52
2022-10-19T05:21:10.768Z,15.88
2022-10-19T05:23:38.411Z,11.60
2022-10-19T05:26:09.397Z,18.52
2022-10-19T05:28:37.187Z,15.63
2022-10-19T05:31:13.404Z,13.13
2022-10-19T05:33:44.066Z,11.10
2022-10-19T05:36:21.840Z,8.82
2022-10-19T05:38:52.890Z,11.50
2022-10-19T05:41:24.573Z,12.68
2022-10-19T05:43:56.837Z,11.60
2022-10-19T05:46:25.012Z,12.60
2022-10-19T05:48:52.064Z,11.93
2022-10-19T05:51:23.161Z,12.18
2022-10-19T05:53:52.056Z,10.85
2022-10-19T05:56:24.798Z,9.10
2022-10-19T05:58:52.468Z,13.32
2022-10-19T06:01:21.720Z,12.02
2022-10-19T06:03:52.413Z,14.15
2022-10-19T06:06:20.220Z,15.00
2022-10-19T06:08:51.521Z,13.82
2022-10-19T06:11:21.406Z,13.15
2022-10-19T06:13:50.644Z,8.50
2022-10-19T06:16:19.865Z,16.23
2022-10-19T06:18:47.192Z,14.98
2022-10-19T06:21:19.163Z,17.77
2022-10-19T06:23:50.799Z,15.00
2022-10-19T06:26:18.450Z,15.98
2022-10-19T06:28:45.973Z,22.02
2022-10-19T06:31:14.850Z,19.92
2022-10-19T06:33:44.929Z,14.40
2022-10-19T06:36:25.942Z,12.88
2022-10-19T06:38:53.577Z,14.20
2022-10-19T06:41:21.081Z,14.35
2022-10-19T06:43:52.275Z,19.15
2022-10-19T06:46:22.190Z,9.93
2022-10-19T06:49:00.395Z,9.98
2022-10-19T06:51:28.974Z,9.93
2022-10-19T06:53:57.069Z,9.50
2022-10-19T06:56:26.359Z,8.60
2022-10-19T06:58:54.403Z,9.20
2022-10-19T07:01:22.375Z,6.82
2022-10-19T07:03:51.464Z,11.23
2022-10-19T07:06:19.283Z,10.70
2022-10-19T07:08:46.483Z,8.57
2022-10-19T07:11:19.578Z,6.45
2022-10-19T07:16:19.830Z,6.75
2022-10-19T07:18:50.043Z,7.47
2022-10-19T07:21:18.149Z,7.95
2022-10-19T07:23:47.469Z,7.28
2022-10-19T07:26:17.851Z,7.38
2022-10-19T07:28:47.677Z,6.88
2022-10-19T07:31:20.767Z,6.60
2022-10-19T07:33:52.865Z,7.32
2022-10-19T07:36:19.999Z,5.43
2022-10-19T07:38:47.450Z,6.95
2022-10-19T07:41:17.237Z,6.68
2022-10-19T07:43:46.278Z,6.15
2022-10-19T07:46:29.682Z,8.88
2022-10-19T07:48:56.917Z,6.30
2022-10-19T07:51:24.181Z,5.68
2022-10-19T07:53:51.646Z,4.85
2022-10-19T07:56:21.605Z,6.63
2022-10-19T07:58:50.569Z,7.45
2022-10-19T08:01:25.098Z,8.05
2022-10-19T08:04:48.725Z,5.73
2022-10-19T08:06:41.618Z,5.75
2022-10-19T08:09:08.843Z,6.95
2022-10-19T08:11:39.253Z,10.90
2022-10-19T08:14:06.610Z,9.85
2022-10-19T08:16:40.555Z,9.60
2022-10-19T08:19:13.261Z,14.60
2022-10-19T08:21:42.569Z,13.70
2022-10-19T08:24:11.128Z,11.73
2022-10-19T08:26:40.241Z,9.48
2022-10-19T08:29:10.609Z,11.00
2022-10-19T08:31:37.856Z,15.38
2022-10-19T08:34:05.820Z,14.63
2022-10-19T08:36:35.662Z,10.18
2022-10-19T08:39:05.948Z,8.65
2022-10-19T08:41:35.430Z,7.40
2022-10-19T08:44:30.567Z,9.63
2022-10-19T08:47:42.313Z,7.75
2022-10-19T08:50:36.576Z,9.55
2022-10-19T08:53:12.724Z,8.25
2022-10-19T08:55:54.930Z,11.10
2022-10-19T08:59:00.323Z,11.80
2022-10-19T09:01:37.608Z,10.25
2022-10-19T09:04:07.560Z,8.48
2022-10-19T09:06:45.061Z,9.02
2022-10-19T09:09:18.289Z,6.28
2022-10-19T09:11:49.429Z,9.20
2022-10-19T09:14:33.910Z,8.00
2022-10-19T09:17:06.710Z,8.95
2022-10-19T09:19:33.804Z,10.40
2022-10-19T09:22:08.983Z,4.97
2022-10-19T09:24:45.398Z,8.02
2022-10-19T09:27:38.141Z,6.97
2022-10-19T09:30:13.740Z,6.40
2022-10-19T09:32:41.450Z,6.28
2022-10-19T09:35:27.814Z,6.43
2022-10-19T09:37:55.988Z,7.65
2022-10-19T09:40:26.471Z,8.80
2022-10-19T09:43:03.464Z,9.23
2022-10-19T09:45:46.505Z,12.10
2022-10-19T09:48:28.772Z,8.80
2022-10-19T09:50:59.622Z,11.23
2022-10-19T09:53:28.340Z,9.27
2022-10-19T09:56:07.829Z,9.75
2022-10-19T09:58:35.704Z,9.95
2022-10-19T10:01:03.657Z,7.40
2022-10-19T10:03:35.328Z,8.05
2022-10-19T10:06:06.065Z,9.32
2022-10-19T10:08:39.558Z,6.68
2022-10-19T10:11:22.526Z,8.77
2022-10-19T10:13:53.153Z,6.60
2022-10-19T10:16:29.442Z,6.07
2022-10-19T10:18:59.539Z,7.03
2022-10-19T10:21:33.799Z,6.32
2022-10-19T10:24:16.965Z,5.40
2022-10-19T10:26:47.920Z,6.55
2022-10-19T10:29:28.716Z,5.45
2022-10-19T10:32:11.600Z,7.93
2022-10-19T10:35:03.063Z,5.85
2022-10-19T10:37:44.404Z,5.85
2022-10-19T10:40:28.761Z,6.75
2022-10-19T10:43:02.540Z,6.60
2022-10-19T10:45:34.158Z,10.07
2022-10-19T10:48:28.470Z,10.43
2022-10-19T10:50:57.358Z,11.05
2022-10-19T10:53:44.789Z,14.13
2022-10-19T10:56:33.796Z,11.98
2022-10-19T10:59:13.139Z,12.48
2022-10-19T11:01:45.409Z,10.73
2022-10-19T11:04:21.684Z,15.88
2022-10-19T11:06:56.065Z,16.15
2022-10-19T11:09:26.006Z,15.57
2022-10-19T11:11:56.233Z,18.13
2022-10-19T11:14:41.793Z,16.73
2022-10-19T11:17:18.510Z,14.80
2022-10-19T11:19:45.703Z,17.25
2022-10-19T11:22:28.671Z,17.95
2022-10-19T11:25:29.801Z,18.65
2022-10-19T11:28:20.735Z,16.48
2022-10-19T11:31:11.058Z,16.20
2022-10-19T11:33:52.433Z,22.08
2022-10-19T11:36:34.646Z,19.08
2022-10-19T11:39:24.479Z,23.02
2022-10-19T11:42:29.866Z,18.65
2022-10-19T11:45:34.620Z,20.30
2022-10-19T11:48:21.240Z,19.95
2022-10-19T11:51:21.861Z,21.55
2022-10-19T11:53:57.872Z,14.68
2022-10-19T11:57:01.657Z,19.70
2022-10-19T11:59:38.287Z,18.90
2022-10-19T12:02:30.816Z,17.60
2022-10-19T12:05:01.623Z,18.63
2022-10-19T12:07:51.797Z,16.60
2022-10-19T12:10:34.840Z,11.82
2022-10-19T12:13:05.367Z,11.90
2022-10-19T12:15:40.056Z,15.98
2022-10-19T12:18:36.321Z,14.85
2022-10-19T12:21:11.795Z,16.17
2022-10-19T12:23:41.997Z,10.02
2022-10-19T12:26:14.688Z,10.57
2022-10-19T12:28:46.508Z,9.77
2022-10-19T12:31:14.731Z,10.57
2022-10-19T12:33:53.525Z,12.40
2022-10-19T12:36:29.680Z,10.85
2022-10-19T12:39:09.910Z,12.70
2022-10-19T12:41:44.498Z,10.52
2022-10-19T12:44:26.773Z,8.52
2022-10-19T12:47:01.240Z,11.10
2022-10-19T12:49:31.290Z,12.45
2022-10-19T12:52:00.722Z,10.93
2022-10-19T12:54:34.176Z,11.57
2022-10-19T12:57:02.815Z,14.82
2022-10-19T12:59:35.315Z,13.18
2022-10-19T13:02:06.787Z,14.77
2022-10-19T13:04:36.241Z,11.50
2022-10-19T13:07:08.721Z,15.43
2022-10-19T13:09:39.153Z,10.95
2022-10-19T13:12:19.570Z,16.52
2022-10-19T13:14:59.114Z,13.25
2022-10-19T13:17:38.146Z,11.10
2022-10-19T13:20:14.509Z,12.80
2022-10-19T13:23:08.777Z,10.07
2022-10-19T13:25:37.586Z,12.73
2022-10-19T13:28:07.920Z,12.48
2022-10-19T13:31:03.268Z,13.00
2022-10-19T13:33:35.556Z,11.00
2022-10-19T13:36:05.631Z,11.55
2022-10-19T13:38:50.907Z,17.05
2022-10-19T13:41:27.322Z,12.15
2022-10-19T13:44:17.191Z,9.27
2022-10-19T13:47:32.800Z,8.13
2022-10-19T13:50:10.553Z,11.52
2022-10-19T13:52:43.397Z,7.90
2022-10-19T13:58:20.575Z,6.00
2022-10-19T14:01:11.804Z,9.85
2022-10-19T14:04:00.580Z,7.43
2022-10-19T14:06:31.814Z,7.47
2022-10-19T14:09:10.690Z,6.90
2022-10-19T14:11:40.969Z,15.70
2022-10-19T14:14:11.161Z,11.95
2022-10-19T14:17:03.020Z,9.35
2022-10-19T14:19:43.701Z,9.30
2022-10-19T14:22:33.626Z,8.00
2022-10-19T14:25:27.968Z,7.20
2022-10-19T14:28:17.358Z,5.90
2022-10-19T14:30:44.795Z,8.85
2022-10-19T14:33:17.994Z,8.75
2022-10-19T14:35:50.199Z,6.82
2022-10-19T14:38:35.229Z,6.90
2022-10-19T14:41:07.515Z,5.72
2022-10-19T14:43:36.945Z,6.80
2022-10-19T14:46:11.736Z,8.95
2022-10-19T14:48:44.936Z,10.95
2022-10-19T14:51:29.723Z,9.25
2022-10-19T14:54:20.035Z,8.40
2022-10-19T14:57:06.601Z,10.88
2022-10-19T14:59:36.598Z,10.60
2022-10-19T15:02:26.967Z,9.40
2022-10-19T15:04:56.847Z,14.23
2022-10-19T15:07:30.538Z,9.88
2022-10-19T15:10:01.361Z,12.23
2022-10-19T15:12:42.196Z,9.15
2022-10-19T15:15:22.668Z,11.32
2022-10-19T15:18:01.879Z,12.90
2022-10-19T15:20:31.367Z,13.32
2022-10-19T15:23:24.103Z,11.02
2022-10-19T15:26:00.935Z,9.85
2022-10-19T15:28:40.648Z,12.18
2022-10-19T15:31:24.602Z,8.88
2022-10-19T15:33:55.520Z,12.15
2022-10-19T15:36:24.520Z,15.35
2022-10-19T15:39:17.956Z,10.15
2022-10-19T15:41:50.876Z,14.43
2022-10-19T15:44:41.946Z,14.73
2022-10-19T15:47:15.209Z,16.45
2022-10-19T15:49:42.374Z,16.15
2022-10-19T15:52:19.698Z,18.17
2022-10-19T15:54:50.994Z,16.90
2022-10-19T15:57:38.342Z,20.88
2022-10-19T16:00:15.883Z,16.92
2022-10-19T16:02:43.145Z,18.35
2022-10-19T16:05:11.032Z,15.27
2022-10-19T16:07:40.373Z,24.15
2022-10-19T16:10:14.812Z,22.55
2022-10-19T16:12:42.165Z,17.65
2022-10-19T16:15:13.110Z,21.83
2022-10-19T16:17:40.851Z,15.25
2022-10-19T16:20:11.010Z,18.42
2022-10-19T16:22:38.204Z,18.40
2022-10-19T16:25:05.772Z,13.88
2022-10-19T16:27:33.051Z,15.18
2022-10-19T16:30:00.321Z,14.75
2022-10-19T16:32:27.390Z,12.90
2022-10-19T16:34:54.409Z,11.13
2022-10-19T16:37:21.452Z,10.90
2022-10-19T16:39:48.533Z,13.50
2022-10-19T16:42:15.634Z,8.65
2022-10-19T16:44:42.707Z,10.40
2022-10-19T16:47:09.731Z,7.40
2022-10-19T16:49:36.839Z,10.13
2022-10-19T16:52:04.056Z,9.25
2022-10-19T16:54:32.782Z,12.02
2022-10-19T16:56:59.818Z,10.32
2022-10-19T16:59:26.852Z,9.23
2022-10-19T17:01:54.167Z,8.57
2022-10-19T17:04:21.278Z,10.45
2022-10-19T17:06:48.326Z,13.70
2022-10-19T17:09:41.449Z,11.18
2022-10-19T17:12:02.593Z,11.75
2022-10-19T17:14:29.841Z,10.50
2022-10-19T17:16:59.804Z,9.05
2022-10-19T17:19:30.081Z,9.88
2022-10-19T17:22:06.464Z,12.18
2022-10-19T17:24:33.750Z,9.40
2022-10-19T17:27:04.285Z,10.48
2022-10-19T17:29:34.763Z,9.65
2022-10-19T17:32:02.902Z,10.60
2022-10-19T17:34:36.048Z,11.70
2022-10-19T17:37:03.304Z,11.85
2022-10-19T17:39:30.471Z,13.15
2022-10-19T17:42:01.824Z,12.57
2022-10-19T17:44:33.142Z,11.07
2022-10-19T17:47:00.788Z,11.50
2022-10-19T17:49:30.001Z,11.93
2022-10-19T17:51:59.122Z,14.10
2022-10-19T17:54:39.524Z,17.20
2022-10-19T17:57:16.539Z,12.02
2022-10-19T17:59:52.625Z,9.68
2022-10-19T18:02:23.995Z,13.23
2022-10-19T18:04:53.701Z,13.27
2022-10-19T18:07:22.383Z,14.20
2022-10-19T18:09:52.348Z,14.00
2022-10-19T18:12:30.367Z,12.68
2022-10-19T18:15:01.066Z,12.13
2022-10-19T18:17:28.885Z,11.63
2022-10-19T18:19:58.933Z,13.05
2022-10-19T18:22:26.163Z,11.70
2022-10-19T18:24:56.141Z,12.68
2022-10-19T18:27:24.350Z,15.35
2022-10-19T18:29:51.429Z,13.30
2022-10-19T18:32:24.448Z,10.27
2022-10-19T18:34:51.802Z,11.93
2022-10-19T18:37:21.963Z,13.05
2022-10-19T18:39:51.299Z,12.88
2022-10-19T18:42:21.018Z,13.43
2022-10-19T18:44:53.564Z,10.45
2022-10-19T18:47:20.718Z,12.15
2022-10-19T18:49:47.781Z,14.00
2022-10-19T18:52:17.285Z,15.05
2022-10-19T18:54:44.420Z,12.77
2022-10-19T18:57:11.700Z,17.33
2022-10-19T18:59:38.767Z,10.07
2022-10-19T19:02:10.390Z,12.02
2022-10-19T19:04:44.362Z,16.38
2022-10-19T19:07:11.442Z,15.35
2022-10-19T19:09:44.577Z,9.55
2022-10-19T19:12:31.379Z,13.48
2022-10-19T19:14:58.886Z,10.25
2022-10-19T19:17:26.294Z,8.68
2022-10-19T19:19:58.947Z,11.02
2022-10-19T19:22:26.291Z,11.98
2022-10-19T19:24:53.920Z,8.35
2022-10-19T19:27:22.965Z,7.53
2022-10-19T19:29:51.388Z,7.85
2022-10-19T19:32:18.527Z,6.55
2022-10-19T19:34:45.746Z,7.68
2022-10-19T19:37:13.655Z,7.72
2022-10-19T19:39:45.150Z,8.93
2022-10-19T19:42:13.170Z,7.60
2022-10-19T19:44:41.311Z,11.80
2022-10-19T19:47:08.917Z,11.48
2022-10-19T19:49:36.954Z,9.07
2022-10-19T19:52:06.998Z,6.25
2022-10-19T19:54:34.137Z,8.05
2022-10-19T19:57:03.527Z,11.82
2022-10-19T19:59:31.133Z,8.15
2022-10-19T20:01:58.270Z,10.25
2022-10-19T20:04:25.300Z,10.02
2022-10-19T20:06:52.348Z,10.23
2022-10-19T20:09:19.350Z,8.55
2022-10-19T20:11:46.378Z,10.80
2022-10-19T20:14:13.504Z,8.52
2022-10-19T20:16:41.185Z,8.80
2022-10-19T20:19:11.840Z,8.10
2022-10-19T20:21:39.402Z,9.90
2022-10-19T20:24:07.159Z,8.48
2022-10-19T20:26:34.525Z,10.73
2022-10-19T20:29:03.616Z,9.20
2022-10-19T20:31:32.590Z,8.93
2022-10-19T20:33:59.663Z,10.07
2022-10-19T20:36:27.010Z,7.35
2022-10-19T20:38:56.532Z,8.50
2022-10-19T20:41:26.038Z,7.10
2022-10-19T20:43:53.870Z,14.90
2022-10-19T20:46:27.180Z,7.38
2022-10-19T20:48:56.583Z,7.65
2022-10-19T20:51:30.633Z,7.57
2022-10-19T20:54:01.371Z,8.15
2022-10-19T20:56:31.451Z,6.65
2022-10-19T21:01:32.165Z,7.43
2022-10-19T21:04:01.604Z,6.70
2022-10-19T21:06:30.483Z,7.68
2022-10-19T21:08:58.943Z,5.22
2022-10-19T21:11:32.102Z,6.90
2022-10-19T21:16:30.080Z,6.97
2022-10-19T21:18:57.578Z,7.80
2022-10-19T21:21:27.553Z,6.20
2022-10-19T21:23:57.758Z,11.55
2022-10-19T21:26:26.014Z,8.20
2022-10-19T21:28:56.004Z,10.73
2022-10-19T21:31:25.510Z,5.90
2022-10-19T21:33:53.887Z,11.75
2022-10-19T21:36:22.142Z,7.18
2022-10-19T21:38:49.242Z,11.43
2022-10-19T21:41:20.980Z,11.38
2022-10-19T21:43:51.016Z,5.80
2022-10-19T21:46:20.879Z,9.05
2022-10-19T21:48:48.748Z,8.68
2022-10-19T21:51:32.578Z,14.57
2022-10-19T21:53:59.738Z,9.88
2022-10-19T21:56:27.161Z,9.43
2022-10-19T21:58:55.098Z,11.35
2022-10-19T22:01:25.317Z,8.02
2022-10-19T22:04:00.506Z,7.05
2022-10-19T22:06:30.469Z,7.35
2022-10-19T22:08:58.754Z,12.00
2022-10-19T22:11:26.862Z,8.50
2022-10-19T22:13:59.299Z,7.38
2022-10-19T22:16:28.365Z,9.05
2022-10-19T22:18:56.381Z,10.73
2022-10-19T22:21:26.459Z,6.80
2022-10-19T22:23:56.043Z,9.25
2022-10-19T22:26:26.096Z,10.20
2022-10-19T22:28:55.202Z,9.07
2022-10-19T22:31:22.550Z,12.73
2022-10-19T22:33:49.550Z,9.57
2022-10-19T22:36:16.636Z,8.25
2022-10-19T22:38:43.696Z,10.32
2022-10-19T22:41:10.715Z,9.60
2022-10-19T22:43:37.717Z,10.82
2022-10-19T22:46:05.042Z,9.90
2022-10-19T22:48:32.042Z,10.07
2022-10-19T22:50:59.198Z,10.18
2022-10-19T22:53:26.170Z,8.73
2022-10-19T22:55:53.174Z,10.85
2022-10-19T22:58:20.302Z,8.45
2022-10-19T23:00:59.305Z,11.20
2022-10-19T23:03:26.318Z,8.63
2022-10-19T23:05:53.442Z,9.27
2022-10-19T23:08:20.519Z,10.20
2022-10-19T23:10:47.694Z,10.68
2022-10-19T23:13:15.286Z,14.13
2022-10-19T23:15:43.968Z,8.15
2022-10-19T23:18:11.980Z,9.98
2022-10-19T23:20:39.030Z,11.20
2022-10-19T23:23:06.244Z,12.32
2022-10-19T23:25:33.632Z,7.78
2022-10-19T23:28:00.905Z,9.52
2022-10-19T23:30:27.916Z,7.57
2022-10-19T23:32:54.959Z,10.43
2022-10-19T23:35:21.976Z,8.32
2022-10-19T23:37:48.971Z,10.43
2022-10-19T23:40:16.113Z,9.90
2022-10-19T23:42:43.251Z,7.95
2022-10-19T23:45:16.253Z,15.48
2022-10-19T23:47:43.313Z,8.05
2022-10-19T23:50:10.293Z,9.15
2022-10-19T23:52:37.644Z,9.32
2022-10-19T23:55:05.180Z,7.40
2022-10-19T23:57:32.256Z,5.85
2022-10-19T23:59:59.316Z,11.63
